Time;durP1;ratioP1;P1;durP2;ratioP2;P2;SDS_P1;SDS_P2;PMS_P1;PMS_P2;Temp;Humidity;BMP_temperature;BMP_pressure;BME280_temperature;BME280_humidity;BME280_pressure;Samples;Min_cycle;Max_cycle;Signal;HPM_P1;HPM_P2
2021/12/01 00:01:43;;;;;;;6.50;4.07;;;;;;;;;;5072146;28;20499;-42
2021/12/01 00:04:09;;;;;;;7.78;4.53;;;;;;;;;;5082762;28;20020;-42
2021/12/01 00:06:35;;;;;;;8.75;5.93;;;;;;;;;;5079520;28;20028;-43
2021/12/01 00:09:02;;;;;;;4.47;3.58;;;;;;;;;;5077057;28;20043;-43
2021/12/01 00:11:28;;;;;;;6.38;4.00;;;;;;;;;;5074477;28;20028;-43
2021/12/01 00:13:54;;;;;;;12.40;6.40;;;;;;;;;;5077487;28;20046;-43
2021/12/01 00:16:20;;;;;;;11.43;6.13;;;;;;;;;;5077099;28;20090;-45
2021/12/01 00:18:45;;;;;;;15.25;7.68;;;;;;;;;;5073643;28;20028;-43
2021/12/01 00:21:11;;;;;;;13.75;8.40;;;;;;;;;;5078986;28;20090;-43
2021/12/01 00:23:37;;;;;;;13.85;8.77;;;;;;;;;;5070377;28;20451;-44
2021/12/01 00:26:04;;;;;;;12.13;8.80;;;;;;;;;;5080216;28;20058;-43
2021/12/01 00:28:30;;;;;;;14.98;7.57;;;;;;;;;;5075559;28;20036;-43
2021/12/01 00:30:57;;;;;;;12.73;7.63;;;;;;;;;;5075201;28;20111;-42
2021/12/01 00:33:23;;;;;;;8.40;5.65;;;;;;;;;;5085341;28;20380;-43
2021/12/01 00:35:51;;;;;;;9.80;5.30;;;;;;;;;;5072762;28;20040;-43
2021/12/01 00:38:17;;;;;;;8.05;4.15;;;;;;;;;;5083893;28;20055;-43
2021/12/01 00:40:42;;;;;;;7.22;4.22;;;;;;;;;;5071344;28;20800;-44
2021/12/01 00:43:15;;;;;;;7.32;3.90;;;;;;;;;;5076099;28;20028;-43
2021/12/01 00:45:49;;;;;;;3.25;2.80;;;;;;;;;;5077129;28;20524;-43
2021/12/01 00:48:16;;;;;;;3.88;2.58;;;;;;;;;;5080745;28;20037;-43
2021/12/01 00:50:41;;;;;;;3.20;2.45;;;;;;;;;;5076089;28;20033;-43
2021/12/01 00:53:08;;;;;;;2.33;1.90;;;;;;;;;;5076340;28;20464;-42
2021/12/01 00:55:34;;;;;;;5.80;2.60;;;;;;;;;;5077350;28;20604;-43
2021/12/01 00:58:00;;;;;;;4.20;2.35;;;;;;;;;;5081800;28;20032;-43
2021/12/01 01:00:28;;;;;;;3.35;2.58;;;;;;;;;;5075587;28;20111;-46
2021/12/01 01:02:56;;;;;;;2.38;2.17;;;;;;;;;;5077281;28;20097;-43
2021/12/01 01:05:22;;;;;;;4.13;2.50;;;;;;;;;;5083247;28;20032;-43
2021/12/01 01:07:49;;;;;;;4.18;2.47;;;;;;;;;;5079913;28;20564;-42
2021/12/01 01:18:19;;;;;;;4.32;2.78;;;;;;;;;;5080863;28;20416;-44
2021/12/01 01:20:45;;;;;;;3.47;2.38;;;;;;;;;;5086330;28;20035;-42
2021/12/01 01:23:11;;;;;;;4.40;3.17;;;;;;;;;;5085172;28;20130;-42
2021/12/01 01:25:37;;;;;;;4.20;2.75;;;;;;;;;;5083707;28;20051;-44
2021/12/01 01:28:03;;;;;;;5.13;3.28;;;;;;;;;;5082996;28;20056;-43
2021/12/01 01:30:29;;;;;;;6.07;3.13;;;;;;;;;;5084160;28;20143;-42
2021/12/01 01:32:55;;;;;;;3.63;2.80;;;;;;;;;;5083214;28;20032;-46
2021/12/01 01:35:21;;;;;;;2.65;2.30;;;;;;;;;;5080825;28;20028;-43
2021/12/01 01:37:47;;;;;;;2.75;2.10;;;;;;;;;;5082586;28;20035;-43
2021/12/01 01:40:15;;;;;;;4.57;2.75;;;;;;;;;;5080356;28;20551;-43
2021/12/01 01:42:42;;;;;;;4.10;2.42;;;;;;;;;;5084624;28;20028;-43
2021/12/01 01:45:08;;;;;;;2.00;1.80;;;;;;;;;;5080762;28;20476;-43
2021/12/01 01:47:35;;;;;;;3.92;3.05;;;;;;;;;;5082250;28;20043;-42
2021/12/01 01:50:23;;;;;;;3.45;2.35;;;;;;;;;;5078694;28;20036;-43
2021/12/01 01:52:48;;;;;;;2.53;2.10;;;;;;;;;;5083996;28;20094;-43
2021/12/01 01:55:14;;;;;;;4.18;2.90;;;;;;;;;;5081997;28;20435;-42
2021/12/01 01:57:43;;;;;;;6.03;3.30;;;;;;;;;;5082630;28;20115;-42
2021/12/01 02:00:10;;;;;;;4.63;3.25;;;;;;;;;;5079701;28;20881;-43
2021/12/01 02:02:36;;;;;;;2.78;2.58;;;;;;;;;;5075080;28;20421;-42
2021/12/01 02:05:02;;;;;;;3.30;3.00;;;;;;;;;;5073640;28;20070;-46
2021/12/01 02:07:29;;;;;;;5.10;2.80;;;;;;;;;;5076602;28;20056;-42
2021/12/01 02:09:55;;;;;;;2.83;2.40;;;;;;;;;;5080165;28;20040;-42
2021/12/01 02:12:21;;;;;;;4.60;2.65;;;;;;;;;;5083004;28;20032;-43
2021/12/01 02:14:47;;;;;;;4.50;2.60;;;;;;;;;;5079910;28;20416;-43
2021/12/01 02:17:12;;;;;;;11.18;4.82;;;;;;;;;;5086386;28;20032;-44
2021/12/01 02:19:38;;;;;;;9.63;4.32;;;;;;;;;;5079043;28;20533;-42
2021/12/01 02:22:04;;;;;;;7.57;4.18;;;;;;;;;;5080738;28;20089;-43
2021/12/01 02:24:30;;;;;;;5.47;3.70;;;;;;;;;;5076243;28;20067;-42
2021/12/01 02:26:56;;;;;;;5.53;3.53;;;;;;;;;;5082276;28;20051;-43
2021/12/01 02:29:25;;;;;;;5.82;2.97;;;;;;;;;;5076267;28;20445;-42
2021/12/01 02:31:52;;;;;;;3.55;2.83;;;;;;;;;;5079423;28;20115;-44
2021/12/01 02:34:21;;;;;;;3.35;2.92;;;;;;;;;;5075138;28;20032;-43
2021/12/01 02:36:50;;;;;;;3.10;2.80;;;;;;;;;;5091175;28;20031;-43
2021/12/01 02:39:16;;;;;;;4.43;3.28;;;;;;;;;;5079102;28;20912;-44
2021/12/01 02:41:43;;;;;;;6.18;2.78;;;;;;;;;;5075876;28;20126;-42
2021/12/01 02:44:12;;;;;;;3.70;3.03;;;;;;;;;;5073353;28;20028;-43
2021/12/01 02:46:38;;;;;;;3.20;2.90;;;;;;;;;;5080239;28;20076;-42
2021/12/01 02:49:05;;;;;;;3.97;2.97;;;;;;;;;;5084959;28;20035;-43
2021/12/01 02:51:32;;;;;;;3.22;2.90;;;;;;;;;;5078470;28;20107;-44
2021/12/01 02:53:59;;;;;;;4.97;3.60;;;;;;;;;;5072720;28;20032;-43
2021/12/01 02:56:25;;;;;;;3.60;3.00;;;;;;;;;;5082812;28;20024;-42
2021/12/01 02:58:51;;;;;;;4.93;3.58;;;;;;;;;;5081230;28;20019;-43
2021/12/01 03:01:22;;;;;;;7.25;4.00;;;;;;;;;;5081051;28;20028;-43
2021/12/01 03:03:49;;;;;;;5.97;4.60;;;;;;;;;;5076975;28;20043;-42
2021/12/01 03:06:16;;;;;;;4.55;3.85;;;;;;;;;;5078145;28;20032;-43
2021/12/01 03:08:45;;;;;;;7.95;4.50;;;;;;;;;;5077892;28;20366;-42
2021/12/01 03:11:11;;;;;;;5.20;3.63;;;;;;;;;;5080660;28;20086;-43
2021/12/01 03:13:38;;;;;;;4.20;3.78;;;;;;;;;;5079507;28;20102;-42
2021/12/01 03:16:05;;;;;;;4.80;3.63;;;;;;;;;;5080309;28;20036;-43
2021/12/01 03:18:31;;;;;;;9.90;3.78;;;;;;;;;;5078708;28;20040;-44
2021/12/01 03:20:56;;;;;;;7.35;4.35;;;;;;;;;;5077569;28;20028;-42
2021/12/01 03:23:23;;;;;;;5.45;3.95;;;;;;;;;;5079813;28;20052;-43
2021/12/01 03:25:49;;;;;;;4.82;3.30;;;;;;;;;;5074786;28;20036;-43
2021/12/01 03:28:16;;;;;;;4.88;3.63;;;;;;;;;;5077857;28;20036;-43
2021/12/01 03:30:41;;;;;;;4.18;3.25;;;;;;;;;;5078747;28;20043;-42
2021/12/01 03:33:10;;;;;;;8.05;3.83;;;;;;;;;;5075340;28;20044;-45
2021/12/01 03:35:39;;;;;;;4.13;3.58;;;;;;;;;;5078544;28;20048;-42
2021/12/01 03:38:06;;;;;;;5.40;3.60;;;;;;;;;;5073242;28;20024;-43
2021/12/01 03:40:32;;;;;;;6.13;3.70;;;;;;;;;;5080873;28;20039;-46
2021/12/01 03:42:58;;;;;;;5.90;3.72;;;;;;;;;;5080999;28;20032;-45
2021/12/01 03:45:24;;;;;;;4.53;3.42;;;;;;;;;;5076288;28;20033;-43
2021/12/01 03:47:50;;;;;;;3.83;3.30;;;;;;;;;;5075315;28;20495;-43
2021/12/01 03:50:16;;;;;;;3.22;2.92;;;;;;;;;;5081130;28;20031;-42
2021/12/01 03:52:41;;;;;;;4.32;3.22;;;;;;;;;;5073107;28;26492;-45
2021/12/01 03:55:08;;;;;;;3.97;3.33;;;;;;;;;;5085051;28;20054;-43
2021/12/01 03:57:34;;;;;;;4.68;3.45;;;;;;;;;;5080834;28;20032;-42
2021/12/01 04:00:00;;;;;;;7.00;3.70;;;;;;;;;;5076046;28;20103;-44
2021/12/01 04:02:27;;;;;;;5.80;3.25;;;;;;;;;;5077419;28;20032;-43
2021/12/01 04:04:53;;;;;;;6.63;3.78;;;;;;;;;;5077043;28;20036;-42
2021/12/01 04:07:19;;;;;;;6.80;4.18;;;;;;;;;;5077779;28;20040;-43
2021/12/01 04:09:46;;;;;;;7.57;4.10;;;;;;;;;;5081888;28;20028;-45
2021/12/01 04:12:12;;;;;;;8.00;4.15;;;;;;;;;;5080044;28;20769;-42
2021/12/01 04:14:38;;;;;;;5.68;4.10;;;;;;;;;;5076649;28;20021;-42
2021/12/01 04:17:04;;;;;;;8.38;5.22;;;;;;;;;;5073340;28;20060;-42
2021/12/01 04:19:30;;;;;;;5.95;4.88;;;;;;;;;;5079054;28;20392;-43
2021/12/01 04:21:57;;;;;;;9.88;5.45;;;;;;;;;;5078006;28;20563;-44
2021/12/01 04:24:23;;;;;;;11.13;5.90;;;;;;;;;;5078100;28;20043;-45
2021/12/01 04:26:49;;;;;;;11.63;6.57;;;;;;;;;;5080804;28;20050;-44
2021/12/01 04:29:14;;;;;;;10.60;6.07;;;;;;;;;;5073022;28;20466;-42
2021/12/01 04:31:40;;;;;;;6.47;5.55;;;;;;;;;;5077531;28;20043;-43
2021/12/01 04:34:07;;;;;;;9.30;6.38;;;;;;;;;;5074443;28;20028;-42
2021/12/01 04:36:37;;;;;;;9.82;6.78;;;;;;;;;;5074421;28;20060;-43
2021/12/01 04:39:10;;;;;;;9.75;7.00;;;;;;;;;;5074909;28;20075;-43
2021/12/01 04:41:41;;;;;;;10.02;7.00;;;;;;;;;;5076386;28;20055;-43
2021/12/01 04:44:14;;;;;;;11.48;7.55;;;;;;;;;;5073096;28;20032;-42
2021/12/01 04:46:46;;;;;;;10.00;6.97;;;;;;;;;;5076962;28;20082;-43
2021/12/01 04:49:15;;;;;;;9.13;6.13;;;;;;;;;;5075750;28;20534;-42
2021/12/01 04:51:42;;;;;;;8.20;5.35;;;;;;;;;;5080225;28;20139;-44
2021/12/01 04:54:08;;;;;;;10.68;6.43;;;;;;;;;;5077493;28;20032;-45
2021/12/01 04:56:36;;;;;;;8.82;6.20;;;;;;;;;;5074240;28;20028;-43
2021/12/01 04:59:04;;;;;;;8.98;6.45;;;;;;;;;;5073529;28;20108;-42
2021/12/01 05:01:29;;;;;;;10.85;7.82;;;;;;;;;;5082742;28;20081;-46
2021/12/01 05:03:55;;;;;;;6.13;4.53;;;;;;;;;;5076978;28;20040;-43
2021/12/01 05:06:22;;;;;;;9.32;6.60;;;;;;;;;;5082205;28;20036;-43
2021/12/01 05:08:48;;;;;;;14.32;6.72;;;;;;;;;;5074039;28;20459;-43
2021/12/01 05:11:14;;;;;;;5.85;5.30;;;;;;;;;;5073769;28;20457;-43
2021/12/01 05:13:40;;;;;;;6.55;4.50;;;;;;;;;;5071014;28;20036;-42
2021/12/01 05:16:06;;;;;;;6.05;4.35;;;;;;;;;;5074919;28;20041;-44
2021/12/01 05:18:31;;;;;;;3.97;3.25;;;;;;;;;;5078960;28;20031;-43
2021/12/01 05:20:57;;;;;;;6.63;4.13;;;;;;;;;;5079652;28;20093;-45
2021/12/01 05:23:23;;;;;;;6.88;4.30;;;;;;;;;;5072908;28;20128;-43
2021/12/01 05:25:48;;;;;;;6.20;4.57;;;;;;;;;;5080017;28;20093;-43
2021/12/01 05:28:14;;;;;;;4.63;3.95;;;;;;;;;;5077153;28;20087;-43
2021/12/01 05:30:40;;;;;;;7.10;4.63;;;;;;;;;;5077601;28;20420;-42
2021/12/01 05:33:09;;;;;;;5.13;3.95;;;;;;;;;;5071840;28;20059;-43
2021/12/01 05:35:36;;;;;;;6.28;4.15;;;;;;;;;;5076963;28;20115;-44
2021/12/01 05:38:03;;;;;;;5.95;4.03;;;;;;;;;;5076085;28;20028;-43
2021/12/01 05:40:29;;;;;;;7.00;4.35;;;;;;;;;;5080276;28;20067;-43
2021/12/01 05:42:55;;;;;;;6.15;4.00;;;;;;;;;;5072908;28;20419;-43
2021/12/01 05:45:20;;;;;;;6.28;4.10;;;;;;;;;;5077366;28;20032;-42
2021/12/01 05:47:46;;;;;;;4.70;4.03;;;;;;;;;;5074826;28;20044;-42
2021/12/01 05:50:12;;;;;;;5.78;3.95;;;;;;;;;;5076986;28;20086;-44
2021/12/01 05:52:38;;;;;;;5.00;4.15;;;;;;;;;;5069866;28;20123;-42
2021/12/01 05:55:05;;;;;;;5.20;4.00;;;;;;;;;;5075465;28;20123;-42
2021/12/01 05:57:31;;;;;;;6.88;4.07;;;;;;;;;;5078885;28;20028;-43
2021/12/01 05:59:59;;;;;;;5.95;3.88;;;;;;;;;;5082165;28;20105;-43
2021/12/01 06:02:27;;;;;;;5.55;3.95;;;;;;;;;;5083147;28;20496;-43
2021/12/01 06:04:53;;;;;;;4.95;3.95;;;;;;;;;;5079228;28;20112;-44
2021/12/01 06:07:19;;;;;;;7.20;4.35;;;;;;;;;;5074047;28;20058;-43
2021/12/01 06:09:44;;;;;;;6.10;3.90;;;;;;;;;;5080914;28;20082;-43
2021/12/01 06:12:13;;;;;;;6.57;3.90;;;;;;;;;;5080727;28;20060;-43
2021/12/01 06:14:44;;;;;;;6.97;3.72;;;;;;;;;;5075651;28;20085;-42
2021/12/01 06:17:11;;;;;;;5.43;3.45;;;;;;;;;;5078023;28;20040;-42
2021/12/01 06:19:37;;;;;;;6.28;4.07;;;;;;;;;;5074847;28;20044;-42
2021/12/01 06:22:04;;;;;;;6.50;4.18;;;;;;;;;;5087097;28;20038;-43
2021/12/01 06:24:30;;;;;;;7.15;3.90;;;;;;;;;;5076371;28;20028;-43
2021/12/01 06:26:55;;;;;;;5.25;3.80;;;;;;;;;;5079134;28;20024;-43
2021/12/01 06:29:21;;;;;;;6.60;3.67;;;;;;;;;;5082259;28;20036;-44
2021/12/01 06:31:47;;;;;;;4.82;3.63;;;;;;;;;;5076169;28;20045;-43
2021/12/01 06:34:13;;;;;;;6.65;3.83;;;;;;;;;;5079693;28;20500;-43
2021/12/01 06:36:39;;;;;;;4.53;3.88;;;;;;;;;;5083218;28;20067;-43
2021/12/01 06:39:06;;;;;;;5.68;3.90;;;;;;;;;;5080093;28;20039;-43
2021/12/01 06:41:32;;;;;;;3.70;3.30;;;;;;;;;;5077679;28;20039;-43
2021/12/01 06:43:59;;;;;;;6.10;3.67;;;;;;;;;;5076987;28;20024;-42
2021/12/01 06:46:25;;;;;;;5.13;3.53;;;;;;;;;;5078884;28;20036;-46
2021/12/01 06:48:51;;;;;;;4.97;3.80;;;;;;;;;;5081452;28;20036;-43
2021/12/01 06:51:17;;;;;;;10.25;5.50;;;;;;;;;;5084493;28;20584;-43
2021/12/01 06:53:43;;;;;;;8.63;5.30;;;;;;;;;;5079372;28;20035;-43
2021/12/01 06:56:09;;;;;;;13.65;8.55;;;;;;;;;;5077359;28;20058;-44
2021/12/01 06:58:36;;;;;;;6.75;4.40;;;;;;;;;;5077242;28;20469;-43
2021/12/01 07:01:05;;;;;;;5.40;4.40;;;;;;;;;;5078215;28;20056;-42
2021/12/01 07:03:31;;;;;;;6.38;3.65;;;;;;;;;;5078751;28;20028;-43
2021/12/01 07:05:57;;;;;;;5.25;3.90;;;;;;;;;;5080043;28;20024;-42
2021/12/01 07:08:23;;;;;;;12.32;4.35;;;;;;;;;;5074457;28;20036;-42
2021/12/01 07:10:52;;;;;;;9.73;4.78;;;;;;;;;;5071506;28;20437;-43
2021/12/01 07:13:18;;;;;;;9.23;4.43;;;;;;;;;;5078672;28;20131;-44
2021/12/01 07:15:44;;;;;;;8.80;5.20;;;;;;;;;;5076926;28;20120;-42
2021/12/01 07:18:09;;;;;;;5.75;4.75;;;;;;;;;;5078947;28;20036;-43
2021/12/01 07:20:36;;;;;;;4.75;4.20;;;;;;;;;;5079151;28;20063;-43
2021/12/01 07:23:04;;;;;;;7.18;4.97;;;;;;;;;;5080904;28;20032;-43
2021/12/01 07:25:31;;;;;;;5.72;5.00;;;;;;;;;;5073681;28;20488;-43
2021/12/01 07:27:58;;;;;;;11.57;4.82;;;;;;;;;;5082579;28;20024;-43
2021/12/01 07:30:24;;;;;;;6.90;4.70;;;;;;;;;;5080015;28;20028;-43
2021/12/01 07:32:50;;;;;;;6.28;4.55;;;;;;;;;;5081002;28;20020;-43
2021/12/01 07:35:17;;;;;;;8.35;4.78;;;;;;;;;;5084848;28;20472;-42
2021/12/01 07:37:43;;;;;;;6.85;5.18;;;;;;;;;;5076568;28;20469;-43
2021/12/01 07:40:11;;;;;;;8.98;4.90;;;;;;;;;;5077629;28;20041;-43
2021/12/01 07:42:37;;;;;;;9.05;4.78;;;;;;;;;;5079226;28;20032;-42
2021/12/01 07:45:04;;;;;;;8.43;4.78;;;;;;;;;;5077038;28;20448;-43
2021/12/01 07:47:31;;;;;;;6.53;4.43;;;;;;;;;;5078133;28;20077;-44
2021/12/01 07:49:57;;;;;;;6.90;4.40;;;;;;;;;;5077267;28;20059;-42
2021/12/01 07:52:22;;;;;;;5.43;4.10;;;;;;;;;;5078091;28;20060;-45
2021/12/01 07:54:48;;;;;;;7.00;3.83;;;;;;;;;;5074919;28;20051;-44
2021/12/01 07:57:14;;;;;;;7.45;3.92;;;;;;;;;;5078625;28;20037;-43
2021/12/01 07:59:41;;;;;;;7.93;4.20;;;;;;;;;;5076420;28;20456;-43
2021/12/01 08:02:07;;;;;;;4.72;3.55;;;;;;;;;;5075240;28;20044;-43
2021/12/01 08:04:33;;;;;;;5.10;3.85;;;;;;;;;;5072135;28;20028;-43
2021/12/01 08:06:59;;;;;;;7.00;4.07;;;;;;;;;;5082432;28;20090;-43
2021/12/01 08:09:25;;;;;;;4.43;4.03;;;;;;;;;;5081746;28;20028;-43
2021/12/01 08:11:53;;;;;;;5.40;3.63;;;;;;;;;;5071533;28;20086;-43
2021/12/01 08:14:19;;;;;;;6.95;4.55;;;;;;;;;;5080694;28;20039;-43
2021/12/01 08:16:45;;;;;;;8.70;6.32;;;;;;;;;;5071314;28;20082;-42
2021/12/01 08:19:11;;;;;;;5.40;4.68;;;;;;;;;;5077685;28;20107;-43
2021/12/01 08:21:37;;;;;;;8.40;4.25;;;;;;;;;;5075964;28;20524;-44
2021/12/01 08:24:04;;;;;;;9.20;5.07;;;;;;;;;;5074957;28;20049;-44
2021/12/01 08:26:30;;;;;;;4.95;3.83;;;;;;;;;;5083218;28;20036;-43
2021/12/01 08:28:56;;;;;;;6.72;3.72;;;;;;;;;;5076819;28;20033;-43
2021/12/01 08:31:22;;;;;;;6.80;4.15;;;;;;;;;;5073071;28;20074;-42
2021/12/01 08:33:48;;;;;;;5.53;3.85;;;;;;;;;;5074319;28;20047;-42
2021/12/01 08:36:15;;;;;;;9.02;4.72;;;;;;;;;;5080985;28;20032;-43
2021/12/01 08:38:42;;;;;;;8.30;4.53;;;;;;;;;;5070713;28;20039;-43
2021/12/01 08:41:09;;;;;;;6.13;4.35;;;;;;;;;;5082316;28;20036;-43
2021/12/01 08:43:34;;;;;;;6.95;4.40;;;;;;;;;;5081784;28;20047;-43
2021/12/01 08:46:02;;;;;;;7.93;3.95;;;;;;;;;;5076520;28;20465;-43
2021/12/01 08:48:28;;;;;;;6.55;4.47;;;;;;;;;;5078744;28;20490;-42
2021/12/01 08:50:56;;;;;;;7.97;4.38;;;;;;;;;;5085430;28;20036;-43
2021/12/01 08:53:23;;;;;;;8.30;4.72;;;;;;;;;;5082625;28;20063;-44
2021/12/01 08:55:49;;;;;;;6.13;4.30;;;;;;;;;;5074916;28;20519;-44
2021/12/01 08:58:15;;;;;;;7.38;4.47;;;;;;;;;;5089000;28;20042;-43
2021/12/01 09:00:46;;;;;;;5.32;4.65;;;;;;;;;;5080179;28;20054;-43
2021/12/01 09:03:13;;;;;;;10.45;5.20;;;;;;;;;;5073721;28;20484;-43
2021/12/01 09:05:40;;;;;;;10.15;4.72;;;;;;;;;;5073386;28;20071;-43
2021/12/01 09:08:07;;;;;;;10.20;5.85;;;;;;;;;;5073110;28;20044;-44
2021/12/01 09:10:33;;;;;;;5.75;5.13;;;;;;;;;;5077107;28;20618;-45
2021/12/01 09:13:00;;;;;;;7.43;4.97;;;;;;;;;;5074112;28;20571;-43
2021/12/01 09:15:27;;;;;;;8.40;5.32;;;;;;;;;;5069996;28;20028;-45
2021/12/01 09:17:52;;;;;;;6.70;4.65;;;;;;;;;;5073014;28;20112;-43
2021/12/01 09:20:19;;;;;;;8.45;5.32;;;;;;;;;;5079277;28;20417;-44
2021/12/01 09:22:45;;;;;;;9.50;5.25;;;;;;;;;;5078188;28;20397;-44
2021/12/01 09:25:11;;;;;;;10.13;5.32;;;;;;;;;;5075885;28;20033;-45
2021/12/01 09:27:37;;;;;;;8.48;6.35;;;;;;;;;;5074979;28;20032;-44
2021/12/01 09:30:05;;;;;;;16.05;5.65;;;;;;;;;;5078816;28;20381;-45
2021/12/01 09:32:35;;;;;;;10.43;6.13;;;;;;;;;;5076267;28;20040;-42
2021/12/01 09:35:01;;;;;;;9.70;5.45;;;;;;;;;;5074680;28;20823;-44
2021/12/01 09:37:27;;;;;;;7.85;5.47;;;;;;;;;;5085670;28;20060;-44
2021/12/01 09:39:53;;;;;;;13.40;6.70;;;;;;;;;;5077460;28;20063;-43
2021/12/01 09:42:19;;;;;;;21.25;7.13;;;;;;;;;;5081402;28;20252;-43
2021/12/01 09:44:45;;;;;;;11.27;6.97;;;;;;;;;;5075956;28;20033;-43
2021/12/01 09:47:11;;;;;;;12.10;6.90;;;;;;;;;;5074770;28;20540;-44
2021/12/01 09:49:37;;;;;;;11.60;7.50;;;;;;;;;;5078467;28;20511;-43
2021/12/01 09:52:04;;;;;;;10.15;7.22;;;;;;;;;;5077126;28;20083;-43
2021/12/01 09:54:29;;;;;;;10.18;5.70;;;;;;;;;;5074751;28;20082;-45
2021/12/01 09:56:55;;;;;;;10.27;5.50;;;;;;;;;;5080948;28;20032;-43
2021/12/01 09:59:21;;;;;;;10.00;5.90;;;;;;;;;;5081691;28;20059;-43
2021/12/01 10:01:47;;;;;;;45.67;17.95;;;;;;;;;;5081734;28;20044;-43
2021/12/01 10:04:12;;;;;;;51.38;19.27;;;;;;;;;;5080068;28;20039;-44
2021/12/01 10:06:38;;;;;;;49.42;21.25;;;;;;;;;;5080968;28;20021;-43
2021/12/01 10:09:07;;;;;;;23.83;12.93;;;;;;;;;;5081055;28;20506;-43
2021/12/01 10:11:41;;;;;;;16.75;9.93;;;;;;;;;;5081566;28;20082;-43
2021/12/01 10:14:14;;;;;;;12.70;8.90;;;;;;;;;;5084941;28;20025;-44
2021/12/01 10:16:44;;;;;;;17.35;9.77;;;;;;;;;;5078904;28;20047;-43
2021/12/01 10:19:16;;;;;;;13.90;8.63;;;;;;;;;;5080110;28;20028;-43
2021/12/01 10:21:46;;;;;;;21.25;11.27;;;;;;;;;;5082177;28;20052;-43
2021/12/01 10:24:18;;;;;;;19.25;10.52;;;;;;;;;;5080592;28;20074;-44
2021/12/01 10:26:46;;;;;;;23.08;8.50;;;;;;;;;;5077874;28;20107;-44
2021/12/01 10:29:18;;;;;;;15.38;7.72;;;;;;;;;;5077865;28;20032;-44
2021/12/01 10:31:54;;;;;;;14.05;7.28;;;;;;;;;;5077559;28;20035;-43
2021/12/01 10:34:25;;;;;;;19.00;7.50;;;;;;;;;;5079385;28;20500;-43
2021/12/01 10:37:26;;;;;;;14.38;7.90;;;;;;;;;;5079322;28;20028;-43
2021/12/01 10:40:17;;;;;;;20.73;7.95;;;;;;;;;;5075254;28;20079;-43
2021/12/01 10:43:04;;;;;;;13.77;7.40;;;;;;;;;;5075666;28;21934;-43
2021/12/01 10:45:38;;;;;;;12.15;7.10;;;;;;;;;;5080716;28;20031;-43
2021/12/01 10:48:06;;;;;;;14.45;7.88;;;;;;;;;;5077619;28;20345;-44
2021/12/01 10:50:35;;;;;;;12.90;7.15;;;;;;;;;;5076968;28;20027;-45
2021/12/01 10:53:08;;;;;;;13.82;6.75;;;;;;;;;;5086761;28;20024;-44
2021/12/01 10:55:40;;;;;;;13.02;6.45;;;;;;;;;;5085903;28;20413;-45
2021/12/01 10:58:06;;;;;;;15.02;7.00;;;;;;;;;;5078443;28;20157;-43
2021/12/01 11:00:38;;;;;;;14.65;6.75;;;;;;;;;;5079275;28;20594;-44
2021/12/01 11:03:19;;;;;;;14.05;7.47;;;;;;;;;;5079453;28;20032;-44
2021/12/01 11:05:47;;;;;;;12.95;6.95;;;;;;;;;;5078100;28;20036;-43
2021/12/01 11:08:25;;;;;;;9.60;6.22;;;;;;;;;;5076867;28;20030;-43
2021/12/01 11:11:11;;;;;;;12.13;7.07;;;;;;;;;;5084161;28;20040;-44
2021/12/01 11:13:47;;;;;;;15.32;7.85;;;;;;;;;;5077428;28;20560;-46
2021/12/01 11:16:15;;;;;;;14.43;7.65;;;;;;;;;;5076593;28;20039;-44
2021/12/01 11:18:46;;;;;;;13.98;6.57;;;;;;;;;;5082154;28;20031;-44
2021/12/01 11:21:17;;;;;;;14.18;7.32;;;;;;;;;;5080106;28;20136;-43
2021/12/01 11:23:52;;;;;;;10.68;5.05;;;;;;;;;;5077306;28;20098;-43
2021/12/01 11:26:22;;;;;;;13.02;6.68;;;;;;;;;;5076340;28;20029;-45
2021/12/01 11:28:56;;;;;;;13.95;6.10;;;;;;;;;;5077536;28;20123;-44
2021/12/01 11:31:26;;;;;;;10.98;6.40;;;;;;;;;;5077858;28;20063;-44
2021/12/01 11:33:55;;;;;;;10.75;6.93;;;;;;;;;;5079939;28;20032;-43
2021/12/01 11:36:42;;;;;;;17.23;7.30;;;;;;;;;;5078090;28;20060;-42
2021/12/01 11:39:17;;;;;;;17.38;7.35;;;;;;;;;;5079031;28;20541;-43
2021/12/01 11:41:43;;;;;;;15.63;6.82;;;;;;;;;;5075889;28;20062;-44
2021/12/01 11:44:10;;;;;;;18.40;8.30;;;;;;;;;;5077046;28;20072;-43
2021/12/01 11:46:36;;;;;;;17.63;6.88;;;;;;;;;;5081567;28;20035;-44
2021/12/01 11:49:10;;;;;;;11.77;5.95;;;;;;;;;;5079029;28;20106;-44
2021/12/01 11:51:44;;;;;;;9.60;5.93;;;;;;;;;;5074446;28;20060;-43
2021/12/01 11:54:21;;;;;;;14.13;5.85;;;;;;;;;;5079696;28;20036;-44
2021/12/01 11:56:53;;;;;;;12.10;6.15;;;;;;;;;;5071475;28;20025;-43
2021/12/01 11:59:21;;;;;;;17.67;6.03;;;;;;;;;;5075652;28;20112;-44
2021/12/01 12:02:16;;;;;;;13.30;5.28;;;;;;;;;;5080968;28;20032;-46
2021/12/01 12:04:49;;;;;;;15.45;6.07;;;;;;;;;;5067481;28;20033;-43
2021/12/01 12:07:26;;;;;;;17.33;9.02;;;;;;;;;;5080290;28;20098;-43
2021/12/01 12:10:13;;;;;;;8.52;7.15;;;;;;;;;;5076528;28;20025;-43
2021/12/01 12:12:46;;;;;;;18.35;7.32;;;;;;;;;;5079586;28;20033;-46
2021/12/01 12:15:31;;;;;;;8.13;4.93;;;;;;;;;;5080549;28;20024;-43
2021/12/01 12:17:57;;;;;;;10.23;5.22;;;;;;;;;;5083773;28;20043;-43
2021/12/01 12:20:27;;;;;;;9.23;5.28;;;;;;;;;;5074931;28;20036;-44
2021/12/01 12:22:54;;;;;;;18.25;8.70;;;;;;;;;;5076892;28;20119;-43
2021/12/01 12:25:38;;;;;;;13.20;8.52;;;;;;;;;;5081006;28;20035;-43
2021/12/01 12:28:35;;;;;;;10.32;7.00;;;;;;;;;;5079142;28;20399;-44
2021/12/01 12:31:18;;;;;;;7.78;4.80;;;;;;;;;;5057988;28;20129;-43
2021/12/01 12:33:50;;;;;;;12.60;4.70;;;;;;;;;;5077808;28;20422;-43
2021/12/01 12:36:16;;;;;;;7.13;4.30;;;;;;;;;;5079748;28;20410;-43
2021/12/01 12:39:03;;;;;;;8.70;4.13;;;;;;;;;;5078096;28;20115;-45
2021/12/01 12:41:28;;;;;;;5.18;4.15;;;;;;;;;;5077136;28;20036;-44
2021/12/01 12:43:54;;;;;;;9.43;4.78;;;;;;;;;;5079542;28;20507;-44
2021/12/01 12:46:20;;;;;;;11.70;5.70;;;;;;;;;;5074316;28;20032;-43
2021/12/01 12:48:51;;;;;;;9.50;5.25;;;;;;;;;;5081416;28;20031;-43
2021/12/01 12:51:17;;;;;;;10.43;4.20;;;;;;;;;;5077982;28;20025;-43
2021/12/01 12:54:02;;;;;;;9.40;4.10;;;;;;;;;;5072038;28;20020;-43
2021/12/01 12:56:32;;;;;;;6.47;3.88;;;;;;;;;;5073801;28;20477;-44
2021/12/01 12:59:19;;;;;;;7.82;4.32;;;;;;;;;;5076209;28;20039;-44
2021/12/01 13:01:46;;;;;;;6.55;4.00;;;;;;;;;;5078143;28;20475;-44
2021/12/01 13:07:38;;;;;;;10.50;4.53;;;;;;;;;;5071792;28;20044;-45
2021/12/01 13:10:19;;;;;;;6.85;4.72;;;;;;;;;;5078864;28;20119;-44
2021/12/01 13:12:50;;;;;;;12.95;4.75;;;;;;;;;;5072011;28;20170;-42
2021/12/01 13:15:29;;;;;;;12.00;5.23;;;;;;;;;;5081721;28;20043;-42
2021/12/01 13:18:01;;;;;;;9.48;4.93;;;;;;;;;;5080566;28;20033;-44
2021/12/01 13:20:30;;;;;;;6.97;4.63;;;;;;;;;;5079247;28;20119;-43
2021/12/01 13:23:29;;;;;;;8.02;4.82;;;;;;;;;;5079090;28;20028;-43
2021/12/01 13:26:16;;;;;;;10.98;6.20;;;;;;;;;;5077266;28;20040;-43
2021/12/01 13:28:48;;;;;;;10.95;6.82;;;;;;;;;;5077648;28;20039;-43
2021/12/01 13:31:21;;;;;;;15.18;8.43;;;;;;;;;;5076713;28;20071;-44
2021/12/01 13:33:53;;;;;;;10.90;7.00;;;;;;;;;;5072960;28;20413;-45
2021/12/01 13:36:20;;;;;;;12.20;7.90;;;;;;;;;;5078966;28;20025;-43
2021/12/01 13:38:57;;;;;;;13.75;7.35;;;;;;;;;;5083831;28;20043;-43
2021/12/01 13:41:29;;;;;;;12.48;7.63;;;;;;;;;;5073973;28;20491;-44
2021/12/01 13:44:06;;;;;;;15.75;7.20;;;;;;;;;;5076375;28;20060;-45
2021/12/01 13:46:32;;;;;;;16.10;7.47;;;;;;;;;;5072346;28;20033;-42
2021/12/01 13:48:57;;;;;;;14.10;6.57;;;;;;;;;;5076260;28;20434;-45
2021/12/01 13:51:24;;;;;;;11.77;5.88;;;;;;;;;;5079995;28;20032;-43
2021/12/01 13:53:51;;;;;;;16.75;5.68;;;;;;;;;;5070404;28;20033;-44
2021/12/01 13:56:25;;;;;;;12.77;7.07;;;;;;;;;;5076613;28;20492;-45
2021/12/01 13:58:59;;;;;;;12.07;7.70;;;;;;;;;;5074739;28;20036;-44
2021/12/01 14:01:25;;;;;;;13.85;7.22;;;;;;;;;;5076757;28;20032;-46
2021/12/01 14:04:05;;;;;;;9.13;6.20;;;;;;;;;;5077156;28;20043;-45
2021/12/01 14:06:34;;;;;;;19.35;5.95;;;;;;;;;;5081979;28;20115;-44
2021/12/01 14:09:10;;;;;;;11.38;5.50;;;;;;;;;;5075529;28;20095;-46
2021/12/01 14:11:52;;;;;;;7.90;5.68;;;;;;;;;;5072687;28;20097;-43
2021/12/01 14:14:20;;;;;;;9.23;5.43;;;;;;;;;;5077796;28;20051;-43
2021/12/01 14:16:49;;;;;;;10.38;5.82;;;;;;;;;;5075798;28;20063;-44
2021/12/01 14:19:16;;;;;;;7.40;4.88;;;;;;;;;;5078793;28;20060;-43
2021/12/01 14:21:41;;;;;;;8.07;4.60;;;;;;;;;;5079565;28;20209;-44
2021/12/01 14:24:17;;;;;;;8.77;5.45;;;;;;;;;;5074743;28;20115;-44
2021/12/01 14:26:54;;;;;;;11.35;5.20;;;;;;;;;;5077898;28;20495;-44
2021/12/01 14:29:21;;;;;;;11.25;6.28;;;;;;;;;;5082203;28;20044;-43
2021/12/01 14:32:02;;;;;;;9.15;5.68;;;;;;;;;;5079854;28;20036;-44
2021/12/01 14:34:31;;;;;;;11.00;5.72;;;;;;;;;;5086525;28;20030;-45
2021/12/01 14:36:59;;;;;;;13.10;7.00;;;;;;;;;;5081444;28;20516;-44
2021/12/01 14:39:25;;;;;;;14.95;8.10;;;;;;;;;;5080627;28;20058;-44
2021/12/01 14:41:54;;;;;;;19.90;9.77;;;;;;;;;;5080450;28;20044;-45
2021/12/01 14:44:26;;;;;;;34.22;23.50;;;;;;;;;;5074668;28;20028;-44
2021/12/01 14:46:58;;;;;;;31.20;21.17;;;;;;;;;;5079042;28;20025;-43
2021/12/01 14:49:35;;;;;;;30.20;20.58;;;;;;;;;;5081831;28;20033;-45
2021/12/01 14:52:01;;;;;;;29.42;20.25;;;;;;;;;;5074132;28;20513;-45
2021/12/01 14:54:33;;;;;;;27.73;18.17;;;;;;;;;;5082220;28;20032;-44
2021/12/01 14:57:01;;;;;;;;;;;;;;;;;;5076126;28;20036;-43
2021/12/01 14:59:27;;;;;;;21.63;14.05;;;;;;;;;;5079812;28;19928;-45